Time;durP1;ratioP1;P1;durP2;ratioP2;P2;SDS_P1;SDS_P2;PMS_P1;PMS_P2;Temp;Humidity;BMP_temperature;BMP_pressure;BME280_temperature;BME280_humidity;BME280_pressure;Samples;Min_cycle;Max_cycle;Signal;HPM_P1;HPM_P2
2021/11/18 00:01:03;;;;;;;130.60;48.20;;;-1.40;99.90;;;;;;4125307;28;20318;-68
2021/11/18 00:03:05;;;;;;;93.33;38.53;;;-1.50;99.90;;;;;;4124619;28;20280;-67
2021/11/18 00:05:07;;;;;;;94.10;40.23;;;-1.50;99.90;;;;;;4124123;28;20280;-61
2021/11/18 00:07:08;;;;;;;94.17;41.47;;;-1.50;99.90;;;;;;4124839;28;20260;-61
2021/11/18 00:09:09;;;;;;;105.37;42.33;;;-1.50;99.90;;;;;;4124986;28;20273;-60
2021/11/18 00:11:15;;;;;;;94.43;41.33;;;-1.60;99.90;;;;;;4123694;28;20292;-61
2021/11/18 00:13:17;;;;;;;97.13;41.97;;;-1.60;99.90;;;;;;4125066;28;20307;-61
2021/11/18 00:15:18;;;;;;;118.53;53.00;;;-1.70;99.90;;;;;;4124960;28;20326;-67
2021/11/18 00:17:20;;;;;;;132.23;56.97;;;-1.70;99.90;;;;;;4124707;28;20260;-64
2021/11/18 00:19:21;;;;;;;126.53;57.07;;;-1.70;99.90;;;;;;4124993;28;20264;-66
2021/11/18 00:21:27;;;;;;;135.60;60.83;;;-1.70;99.90;;;;;;4124613;28;20272;-64
2021/11/18 00:23:34;;;;;;;136.73;57.50;;;-1.80;99.90;;;;;;4125139;28;20322;-59
2021/11/18 00:25:36;;;;;;;129.03;53.20;;;-1.80;99.90;;;;;;4124306;28;20272;-61
2021/11/18 00:27:37;;;;;;;131.93;49.87;;;-1.80;99.90;;;;;;4124972;28;20744;-65
2021/11/18 00:29:38;;;;;;;129.10;51.53;;;-1.90;99.90;;;;;;4124397;28;20276;-64
2021/11/18 00:31:40;;;;;;;113.50;50.03;;;-1.80;99.90;;;;;;4124606;28;20311;-63
2021/11/18 00:33:42;;;;;;;108.63;47.37;;;-1.80;99.90;;;;;;4123574;28;20272;-64
2021/11/18 00:35:45;;;;;;;112.43;49.13;;;-1.80;99.90;;;;;;4124530;28;20672;-64
2021/11/18 00:37:47;;;;;;;107.63;45.07;;;-1.80;99.90;;;;;;4124470;28;20369;-64
2021/11/18 00:39:48;;;;;;;104.93;46.97;;;-1.80;99.90;;;;;;4124271;28;20331;-63
2021/11/18 00:41:49;;;;;;;103.63;45.47;;;-1.80;99.90;;;;;;4124134;28;20322;-59
2021/11/18 00:43:51;;;;;;;111.47;46.53;;;-1.80;99.90;;;;;;4124301;28;20322;-64
2021/11/18 00:45:53;;;;;;;107.43;44.40;;;-1.80;99.90;;;;;;4124367;28;20491;-58
2021/11/18 00:47:55;;;;;;;104.83;44.83;;;-1.80;99.90;;;;;;4124130;28;20323;-60
2021/11/18 00:49:56;;;;;;;110.83;47.97;;;-1.80;99.90;;;;;;4124158;28;20307;-60
2021/11/18 00:51:57;;;;;;;106.53;43.97;;;-1.80;99.90;;;;;;4124560;28;20783;-61
2021/11/18 00:54:03;;;;;;;114.30;45.57;;;-1.90;99.90;;;;;;4123464;28;20272;-60
2021/11/18 00:56:05;;;;;;;127.47;48.70;;;-1.90;99.90;;;;;;4123743;28;20280;-67
2021/11/18 00:58:07;;;;;;;103.67;46.20;;;-2.00;99.90;;;;;;4123889;28;20280;-63
2021/11/18 01:00:16;;;;;;;105.90;44.23;;;-2.00;99.90;;;;;;4124845;28;20260;-66
2021/11/18 01:02:17;;;;;;;106.77;42.50;;;-2.00;99.90;;;;;;4127665;28;20319;-60
2021/11/18 01:04:19;;;;;;;98.20;42.53;;;-2.10;99.90;;;;;;4125752;28;20304;-61
2021/11/18 01:06:21;;;;;;;89.93;39.23;;;-2.10;99.90;;;;;;4123896;28;20850;-62
2021/11/18 01:08:23;;;;;;;97.70;40.43;;;-2.10;99.90;;;;;;4123430;28;20276;-62
2021/11/18 01:10:28;;;;;;;99.37;42.27;;;-2.10;99.90;;;;;;4124444;28;20759;-62
2021/11/18 01:12:30;;;;;;;97.93;41.40;;;-2.20;99.90;;;;;;4123253;28;20276;-64
2021/11/18 01:14:33;;;;;;;95.30;38.80;;;-2.20;99.90;;;;;;4123491;28;20823;-62
2021/11/18 01:16:36;;;;;;;96.87;39.37;;;-2.10;99.90;;;;;;4123498;28;20818;-67
2021/11/18 01:18:38;;;;;;;91.10;37.63;;;-2.20;99.90;;;;;;4122921;28;20276;-60
2021/11/18 01:20:40;;;;;;;86.83;35.33;;;-2.30;99.90;;;;;;4123824;28;20322;-64
2021/11/18 01:22:43;;;;;;;80.20;35.27;;;-2.30;99.90;;;;;;4123801;28;20358;-68
2021/11/18 01:24:45;;;;;;;91.70;38.83;;;-2.40;99.90;;;;;;4123362;28;20358;-58
2021/11/18 01:26:46;;;;;;;98.07;39.33;;;-2.40;99.90;;;;;;4123952;28;20323;-61
2021/11/18 01:28:48;;;;;;;101.57;44.33;;;-2.50;99.90;;;;;;4122354;28;20320;-63
2021/11/18 01:30:50;;;;;;;103.77;42.20;;;-2.50;99.90;;;;;;4123290;28;20276;-64
2021/11/18 01:32:53;;;;;;;106.47;43.33;;;-2.60;99.90;;;;;;4123517;28;20264;-68
2021/11/18 01:34:54;;;;;;;101.23;43.93;;;-2.60;99.90;;;;;;4123613;28;20663;-63
2021/11/18 01:36:55;;;;;;;106.40;44.17;;;-2.60;99.90;;;;;;4123600;28;20260;-62
2021/11/18 01:38:57;;;;;;;104.93;42.33;;;-2.60;99.90;;;;;;4123271;28;20334;-62
2021/11/18 01:41:02;;;;;;;97.90;41.17;;;-2.60;99.90;;;;;;4123469;28;20338;-60
2021/11/18 01:43:04;;;;;;;97.93;42.73;;;-2.70;99.90;;;;;;4123331;28;20890;-63
2021/11/18 01:45:08;;;;;;;101.60;43.77;;;-2.70;99.90;;;;;;4123247;28;20296;-58
2021/11/18 01:47:11;;;;;;;101.67;39.47;;;-2.70;99.90;;;;;;4122806;28;20287;-60
2021/11/18 01:49:13;;;;;;;96.93;40.03;;;-2.70;99.90;;;;;;4123335;28;20760;-67
2021/11/18 01:51:16;;;;;;;88.13;36.97;;;-2.80;99.90;;;;;;4123340;28;20326;-62
2021/11/18 01:53:21;;;;;;;83.40;37.20;;;-2.90;99.90;;;;;;4122772;28;20276;-61
2021/11/18 01:55:25;;;;;;;88.60;37.53;;;-3.00;99.90;;;;;;4122685;28;20354;-62
2021/11/18 01:57:29;;;;;;;81.93;36.03;;;-3.10;99.90;;;;;;4123428;28;20280;-55
2021/11/18 01:59:33;;;;;;;84.77;37.97;;;-3.20;99.90;;;;;;4123164;28;20252;-67
2021/11/18 02:01:34;;;;;;;91.10;35.73;;;-3.30;99.90;;;;;;4123624;28;20264;-63
2021/11/18 02:03:35;;;;;;;102.10;39.73;;;-3.40;99.90;;;;;;4123013;28;20268;-58
2021/11/18 02:05:46;;;;;;;89.33;38.00;;;-3.50;99.90;;;;;;4123115;28;20582;-67
2021/11/18 02:07:48;;;;;;;90.40;40.50;;;-3.50;99.90;;;;;;4124209;28;20819;-61
2021/11/18 02:09:51;;;;;;;128.88;41.67;;;-3.50;99.90;;;;;;4128703;28;20034;-60
2021/11/18 02:11:56;;;;;;;89.93;38.55;;;-3.50;99.90;;;;;;4128613;28;20042;-60
2021/11/18 02:13:59;;;;;;;86.10;38.22;;;-3.60;99.90;;;;;;4128343;28;20097;-61
2021/11/18 02:16:02;;;;;;;92.78;38.65;;;-3.60;99.90;;;;;;4128698;28;20026;-62
2021/11/18 02:18:15;;;;;;;89.88;37.95;;;-3.70;99.90;;;;;;4128431;28;20355;-61
2021/11/18 02:20:26;;;;;;;81.32;38.30;;;-3.70;99.90;;;;;;4128865;28;20096;-66
2021/11/18 02:22:29;;;;;;;91.03;37.75;;;-3.80;99.90;;;;;;4128585;28;20030;-63
2021/11/18 02:24:35;;;;;;;90.15;39.65;;;-3.90;99.90;;;;;;4128500;28;20050;-63
2021/11/18 02:26:36;;;;;;;96.20;39.67;;;-3.90;99.90;;;;;;4127888;28;20101;-61
2021/11/18 02:28:40;;;;;;;89.47;39.25;;;-4.00;99.90;;;;;;4127924;28;20572;-59
2021/11/18 02:30:42;;;;;;;87.25;39.33;;;-4.10;99.90;;;;;;4128128;28;20038;-59
2021/11/18 02:32:43;;;;;;;94.43;41.72;;;-4.20;99.90;;;;;;4128854;28;20022;-63
2021/11/18 02:34:55;;;;;;;90.63;39.13;;;-4.20;99.90;;;;;;4128313;28;20088;-64
2021/11/18 02:36:56;;;;;;;100.53;41.78;;;-4.20;99.90;;;;;;4128725;28;20088;-59
2021/11/18 02:38:57;;;;;;;102.63;41.80;;;-4.30;99.90;;;;;;4128284;28;20090;-59
2021/11/18 02:40:59;;;;;;;104.97;41.70;;;-4.20;99.90;;;;;;4128341;28;20776;-60
2021/11/18 02:43:01;;;;;;;103.57;41.28;;;-4.30;99.90;;;;;;4128031;28;20108;-63
2021/11/18 02:45:04;;;;;;;109.80;42.90;;;-4.30;99.90;;;;;;4128287;28;20561;-63
2021/11/18 02:47:12;;;;;;;95.20;41.90;;;-4.30;99.90;;;;;;4128066;28;20513;-61
2021/11/18 02:49:13;;;;;;;101.30;42.05;;;-4.30;99.90;;;;;;4128413;28;20035;-64
2021/11/18 02:51:17;;;;;;;100.75;44.60;;;-4.20;99.90;;;;;;4128663;28;20109;-66
2021/11/18 02:53:19;;;;;;;105.22;43.55;;;-4.20;99.90;;;;;;4128637;28;20807;-61
2021/11/18 02:55:24;;;;;;;109.82;42.03;;;-4.20;99.90;;;;;;4127947;28;20076;-58
2021/11/18 02:57:26;;;;;;;104.15;43.83;;;-4.20;99.90;;;;;;4127831;28;20046;-59
2021/11/18 02:59:27;;;;;;;93.93;41.20;;;-4.10;99.90;;;;;;4128188;28;20046;-58
2021/11/18 03:01:36;;;;;;;95.57;42.17;;;-4.10;99.90;;;;;;4127591;28;20050;-68
2021/11/18 03:03:39;;;;;;;93.13;41.67;;;-4.10;99.90;;;;;;4128534;28;20099;-62
2021/11/18 03:05:40;;;;;;;98.00;42.67;;;-4.10;99.90;;;;;;4127698;28;20532;-60
2021/11/18 03:07:41;;;;;;;107.50;43.72;;;-4.00;99.90;;;;;;4128878;28;20093;-64
2021/11/18 03:09:42;;;;;;;96.68;40.13;;;-4.00;99.90;;;;;;4126870;28;20073;-62
2021/11/18 03:11:44;;;;;;;98.60;41.00;;;-4.00;99.90;;;;;;4128450;28;20081;-61
2021/11/18 03:13:45;;;;;;;103.32;42.10;;;-4.00;99.90;;;;;;4127460;28;20064;-61
2021/11/18 03:15:46;;;;;;;101.22;42.22;;;-4.10;99.90;;;;;;4128413;28;20921;-63
2021/11/18 03:17:47;;;;;;;104.78;43.88;;;-4.10;99.90;;;;;;4128347;28;20034;-61
2021/11/18 03:19:49;;;;;;;103.72;44.20;;;-4.20;99.90;;;;;;4125944;28;20022;-61
2021/11/18 03:21:50;;;;;;;103.60;43.65;;;-4.20;99.90;;;;;;4126123;28;20076;-60
2021/11/18 03:23:52;;;;;;;101.38;42.75;;;-4.30;99.90;;;;;;4124714;28;20454;-61
2021/11/18 03:25:54;;;;;;;106.78;45.45;;;-4.40;99.90;;;;;;4125339;28;20022;-60
2021/11/18 03:27:55;;;;;;;109.60;41.60;;;-4.40;99.90;;;;;;4123841;28;20038;-59
2021/11/18 03:29:56;;;;;;;115.20;43.97;;;-4.40;99.90;;;;;;4125145;28;20022;-60
2021/11/18 03:31:59;;;;;;;129.88;47.85;;;-4.40;99.90;;;;;;4125465;28;20034;-60
2021/11/18 03:34:07;;;;;;;117.55;46.50;;;-4.40;99.90;;;;;;4125580;28;20038;-61
2021/11/18 03:36:09;;;;;;;118.13;44.88;;;-4.40;99.90;;;;;;4125518;28;20061;-63
2021/11/18 03:38:11;;;;;;;117.70;44.13;;;-4.50;99.90;;;;;;4125774;28;20454;-60
2021/11/18 03:40:13;;;;;;;109.22;43.10;;;-4.50;99.90;;;;;;4125084;28;20048;-62
2021/11/18 03:42:15;;;;;;;107.30;42.10;;;-4.60;99.90;;;;;;4125761;28;20034;-57
2021/11/18 03:44:18;;;;;;;105.75;43.40;;;-4.60;99.90;;;;;;4124724;28;20096;-59
2021/11/18 03:46:23;;;;;;;122.72;43.05;;;-4.70;99.90;;;;;;4125415;28;20463;-62
2021/11/18 03:48:28;;;;;;;122.10;40.58;;;-4.80;99.90;;;;;;4124934;28;20368;-61
2021/11/18 03:50:30;;;;;;;121.15;38.72;;;-4.80;99.90;;;;;;4124606;28;20034;-61
2021/11/18 03:52:31;;;;;;;118.50;41.15;;;-5.00;99.90;;;;;;4125432;28;20483;-62
2021/11/18 03:54:33;;;;;;;95.95;36.22;;;-5.10;99.90;;;;;;4124852;28;20113;-61
2021/11/18 03:56:39;;;;;;;115.15;40.30;;;-5.10;99.90;;;;;;4124438;28;20034;-61
2021/11/18 03:58:41;;;;;;;108.32;44.05;;;-5.20;99.90;;;;;;4124422;28;20030;-58
2021/11/18 04:00:43;;;;;;;122.30;46.53;;;-5.20;99.90;;;;;;4124355;28;20022;-62
2021/11/18 04:02:45;;;;;;;109.97;44.72;;;-5.20;99.90;;;;;;4124920;28;20031;-62
2021/11/18 04:04:50;;;;;;;114.45;44.38;;;-5.20;99.90;;;;;;4125316;28;20427;-67
2021/11/18 04:06:52;;;;;;;138.38;45.85;;;-5.30;99.90;;;;;;4125075;28;20034;-60
2021/11/18 04:08:53;;;;;;;149.68;44.00;;;-5.30;99.90;;;;;;4124841;28;20100;-61
2021/11/18 04:10:54;;;;;;;237.18;51.05;;;-5.30;99.90;;;;;;4124512;28;20026;-60
2021/11/18 04:12:56;;;;;;;140.15;44.63;;;-5.40;99.90;;;;;;4125216;28;20084;-63
2021/11/18 04:14:57;;;;;;;157.20;47.92;;;-5.40;99.90;;;;;;4124676;28;20026;-60
2021/11/18 04:16:58;;;;;;;222.60;52.92;;;-5.50;99.90;;;;;;4124793;28;20848;-62
2021/11/18 04:19:00;;;;;;;240.00;54.28;;;-5.50;99.90;;;;;;4124737;28;20034;-59
2021/11/18 04:21:01;;;;;;;142.00;47.63;;;-5.50;99.90;;;;;;4124950;28;20120;-60
2021/11/18 04:23:04;;;;;;;128.32;47.63;;;-5.50;99.90;;;;;;4124386;28;20909;-62
2021/11/18 04:25:08;;;;;;;115.30;45.38;;;-5.40;99.90;;;;;;4124673;28;20046;-57
2021/11/18 04:27:10;;;;;;;176.98;52.22;;;-5.30;99.90;;;;;;4123536;28;20442;-60
2021/11/18 04:29:13;;;;;;;138.20;50.90;;;-5.10;99.90;;;;;;4124556;28;20030;-60
2021/11/18 04:31:18;;;;;;;239.60;68.30;;;-5.10;99.90;;;;;;4123556;28;20035;-59
2021/11/18 04:33:20;;;;;;;163.45;54.80;;;-5.10;99.90;;;;;;4124619;28;20100;-54
2021/11/18 04:35:21;;;;;;;167.18;55.05;;;-5.10;99.90;;;;;;4123905;28;20034;-64
2021/11/18 04:37:23;;;;;;;153.77;53.15;;;-5.20;99.90;;;;;;4123610;28;20444;-54
2021/11/18 04:39:24;;;;;;;201.63;56.78;;;-5.20;99.90;;;;;;4123902;28;20038;-60
2021/11/18 04:41:27;;;;;;;203.50;54.08;;;-5.20;99.90;;;;;;4124374;28;20467;-60
2021/11/18 04:43:29;;;;;;;216.93;57.80;;;-5.20;99.90;;;;;;4123860;28;20038;-60
2021/11/18 04:45:32;;;;;;;178.32;54.15;;;-5.30;99.90;;;;;;4124225;28;20042;-63
2021/11/18 04:47:33;;;;;;;146.55;52.78;;;-5.30;99.90;;;;;;4123754;28;20042;-57
2021/11/18 04:49:35;;;;;;;132.30;49.88;;;-5.30;99.90;;;;;;4123781;28;20565;-62
2021/11/18 04:51:36;;;;;;;135.98;45.92;;;-5.30;99.90;;;;;;4124362;28;20141;-60
2021/11/18 04:53:37;;;;;;;201.52;51.58;;;-5.30;99.90;;;;;;4123190;28;20038;-59
2021/11/18 04:55:39;;;;;;;231.40;53.10;;;-5.40;99.90;;;;;;4123934;28;20038;-66
2021/11/18 04:57:40;;;;;;;179.50;51.17;;;-5.50;99.90;;;;;;4123143;28;20079;-63
2021/11/18 04:59:42;;;;;;;160.10;51.15;;;-5.50;99.90;;;;;;4123300;28;20085;-61
2021/11/18 05:01:44;;;;;;;195.30;53.60;;;-5.50;99.90;;;;;;4119979;28;20186;-59
2021/11/18 05:03:46;;;;;;;244.05;59.42;;;-5.50;99.90;;;;;;4123942;28;20031;-67
2021/11/18 05:05:49;;;;;;;199.35;55.50;;;-5.50;99.90;;;;;;4123426;28;20043;-61
2021/11/18 05:07:50;;;;;;;167.15;53.92;;;-5.50;99.90;;;;;;4123886;28;20426;-63
2021/11/18 05:09:52;;;;;;;158.93;52.05;;;-5.40;99.90;;;;;;4116446;28;20169;-60
2021/11/18 05:11:53;;;;;;;196.65;53.80;;;-5.50;99.90;;;;;;4106940;28;20038;-62
2021/11/18 05:13:54;;;;;;;158.77;58.05;;;-5.50;99.90;;;;;;4106405;28;20042;-59
2021/11/18 05:15:57;;;;;;;154.52;55.35;;;-5.50;99.90;;;;;;4120398;28;20054;-61
2021/11/18 05:17:58;;;;;;;167.25;55.13;;;-5.50;99.90;;;;;;4123380;28;20093;-61
2021/11/18 05:20:00;;;;;;;210.75;57.13;;;-5.50;99.90;;;;;;4122683;28;20120;-60
2021/11/18 05:22:01;;;;;;;260.45;51.83;;;-5.60;99.90;;;;;;4123796;28;20426;-62
2021/11/18 05:24:05;;;;;;;235.90;54.55;;;-5.60;99.90;;;;;;4122886;28;20140;-60
2021/11/18 05:26:08;;;;;;;235.95;52.20;;;-5.60;99.90;;;;;;4122826;28;20077;-58
2021/11/18 05:28:10;;;;;;;216.77;50.38;;;-5.60;99.90;;;;;;4122681;28;20104;-58
2021/11/18 05:30:14;;;;;;;224.50;58.47;;;-5.60;99.90;;;;;;4123454;28;20038;-59
2021/11/18 05:32:15;;;;;;;176.77;51.10;;;-5.60;99.90;;;;;;4123131;28;20073;-63
2021/11/18 05:34:16;;;;;;;167.35;53.70;;;-5.60;99.90;;;;;;4117496;28;20042;-57
2021/11/18 05:36:18;;;;;;;186.55;54.83;;;-5.60;99.90;;;;;;4123393;28;20695;-58
2021/11/18 05:38:20;;;;;;;134.68;48.85;;;-5.70;99.90;;;;;;4122650;28;20455;-60
2021/11/18 05:40:22;;;;;;;152.23;50.55;;;-5.60;99.90;;;;;;4122419;28;20495;-65
2021/11/18 05:42:23;;;;;;;136.57;48.50;;;-5.50;99.90;;;;;;4122204;28;20096;-59
2021/11/18 05:44:24;;;;;;;151.68;54.85;;;-5.40;99.90;;;;;;4122134;28;20062;-61
2021/11/18 05:46:25;;;;;;;134.40;50.50;;;-5.40;99.90;;;;;;4122593;28;20672;-58
2021/11/18 05:48:26;;;;;;;128.73;48.58;;;-5.20;99.90;;;;;;4121860;28;20049;-63
2021/11/18 05:50:29;;;;;;;126.25;48.30;;;-5.10;99.90;;;;;;4120008;28;20046;-63
2021/11/18 05:52:30;;;;;;;135.93;49.05;;;-4.90;99.90;;;;;;4122366;28;20120;-59
2021/11/18 05:54:31;;;;;;;152.15;51.38;;;-4.90;99.90;;;;;;4121107;28;20523;-61
2021/11/18 05:56:32;;;;;;;142.18;49.53;;;-4.80;99.90;;;;;;4122072;28;20101;-62
2021/11/18 05:58:34;;;;;;;141.98;51.30;;;-4.80;99.90;;;;;;4121831;28;20026;-59
2021/11/18 06:00:36;;;;;;;149.57;53.55;;;-4.70;99.90;;;;;;4122516;28;20027;-60
2021/11/18 06:02:38;;;;;;;150.60;55.72;;;-4.70;99.90;;;;;;4121134;28;20146;-61
2021/11/18 06:04:39;;;;;;;163.02;55.78;;;-4.60;99.90;;;;;;4122222;28;20085;-61
2021/11/18 06:06:41;;;;;;;164.20;56.53;;;-4.50;99.90;;;;;;4122154;28;20026;-61
2021/11/18 06:08:42;;;;;;;164.25;57.00;;;-4.50;99.90;;;;;;4122980;28;20093;-60
2021/11/18 06:10:43;;;;;;;184.82;56.85;;;-4.50;99.90;;;;;;4121334;28;20038;-61
2021/11/18 06:12:45;;;;;;;192.00;55.15;;;-4.50;99.90;;;;;;4122032;28;20077;-62
2021/11/18 06:14:46;;;;;;;177.18;54.10;;;-4.50;99.90;;;;;;4122098;28;20026;-60
2021/11/18 06:16:48;;;;;;;189.82;52.60;;;-4.70;99.90;;;;;;4122527;28;20085;-59
2021/11/18 06:18:50;;;;;;;179.48;54.35;;;-4.70;99.90;;;;;;4122222;28;20043;-62
2021/11/18 06:20:52;;;;;;;193.70;54.05;;;-4.80;99.90;;;;;;4121577;28;20034;-60
2021/11/18 06:22:54;;;;;;;164.35;52.53;;;-4.80;99.90;;;;;;4122531;28;20038;-65
2021/11/18 06:24:56;;;;;;;154.30;51.90;;;-4.70;99.90;;;;;;4122542;28;20042;-63
2021/11/18 06:26:58;;;;;;;147.95;53.00;;;-4.70;99.90;;;;;;4121246;28;20042;-62
2021/11/18 06:28:59;;;;;;;150.60;53.72;;;-4.60;99.90;;;;;;4122549;28;20084;-60
2021/11/18 06:31:07;;;;;;;152.27;55.35;;;-4.50;99.90;;;;;;4120934;28;20034;-64
2021/11/18 06:33:08;;;;;;;150.48;54.53;;;-4.40;99.90;;;;;;4121619;28;20038;-60
2021/11/18 06:35:12;;;;;;;158.32;59.63;;;-4.30;99.90;;;;;;4122165;28;20438;-61
2021/11/18 06:37:13;;;;;;;152.63;55.25;;;-4.20;99.90;;;;;;4121832;28;20042;-61
2021/11/18 06:39:15;;;;;;;157.15;55.53;;;-4.10;99.90;;;;;;4121951;28;20042;-60
2021/11/18 06:41:19;;;;;;;160.60;59.97;;;-4.10;99.90;;;;;;4121354;28;20050;-62
2021/11/18 06:43:22;;;;;;;157.25;55.30;;;-4.00;99.90;;;;;;4121912;28;20092;-62
2021/11/18 06:45:26;;;;;;;147.95;55.75;;;-3.90;99.90;;;;;;4121879;28;20046;-62
2021/11/18 06:47:27;;;;;;;173.32;61.35;;;-3.90;99.90;;;;;;4121959;28;20034;-62
2021/11/18 06:49:29;;;;;;;166.20;60.03;;;-3.90;99.90;;;;;;4122149;28;20050;-59
2021/11/18 06:51:30;;;;;;;139.90;54.97;;;-3.90;99.90;;;;;;4122701;28;20137;-61
2021/11/18 06:53:33;;;;;;;136.05;52.45;;;-3.80;99.90;;;;;;4121850;28;20081;-61
2021/11/18 06:55:34;;;;;;;140.43;55.05;;;-3.80;99.90;;;;;;4124739;28;20034;-61
2021/11/18 06:57:36;;;;;;;132.32;53.60;;;-3.70;99.90;;;;;;4124628;28;20081;-65
2021/11/18 06:59:37;;;;;;;123.28;52.83;;;-3.60;99.90;;;;;;4123716;28;20522;-59
2021/11/18 07:01:38;;;;;;;130.38;52.70;;;-3.60;99.90;;;;;;4121780;28;20100;-61
2021/11/18 07:03:39;;;;;;;128.73;50.88;;;-3.50;99.90;;;;;;4118697;28;20030;-58
2021/11/18 07:05:41;;;;;;;134.73;50.72;;;-3.50;99.90;;;;;;4111125;28;20117;-62
2021/11/18 07:07:42;;;;;;;137.38;51.40;;;-3.40;99.90;;;;;;4124669;28;20026;-54
2021/11/18 07:09:43;;;;;;;132.60;49.67;;;-3.40;99.90;;;;;;4124958;28;20140;-55
2021/11/18 07:11:44;;;;;;;122.63;50.00;;;-3.30;99.90;;;;;;4124679;28;20019;-58
2021/11/18 07:13:46;;;;;;;122.72;49.15;;;-3.20;99.90;;;;;;4125214;28;20022;-65
2021/11/18 07:15:48;;;;;;;124.35;51.63;;;-3.20;99.90;;;;;;4124559;28;20054;-55
2021/11/18 07:17:49;;;;;;;129.95;52.15;;;-3.20;99.90;;;;;;4125049;28;20787;-58
2021/11/18 07:19:51;;;;;;;144.35;57.63;;;-3.10;99.90;;;;;;4121439;28;20046;-59
2021/11/18 07:24:04;;;;;;;;;;;-3.10;99.90;;;;;;4113886;26;20054;-59
2021/11/18 07:26:05;;;;;;;117.88;48.17;;;-3.10;99.90;;;;;;4126094;28;19968;-60
2021/11/18 07:28:07;;;;;;;124.78;49.45;;;-3.10;99.90;;;;;;4130894;28;20031;-66
2021/11/18 07:30:10;;;;;;;135.45;53.65;;;-3.00;99.90;;;;;;4120064;28;20201;-63
2021/11/18 07:32:11;;;;;;;132.73;53.05;;;-3.00;99.90;;;;;;4140145;28;20025;-57
2021/11/18 07:34:12;;;;;;;140.63;56.97;;;-3.00;99.90;;;;;;4129835;28;20038;-59
2021/11/18 07:36:15;;;;;;;132.57;52.80;;;-2.90;99.90;;;;;;4126525;28;20038;-60
2021/11/18 07:38:17;;;;;;;137.67;54.07;;;-2.80;99.90;;;;;;4135084;28;20267;-60
2021/11/18 07:40:20;;;;;;;124.57;53.70;;;-2.70;99.90;;;;;;4126558;28;20264;-61
2021/11/18 07:42:21;;;;;;;123.20;52.00;;;-2.60;99.90;;;;;;4107260;28;20046;-60
2021/11/18 07:44:23;;;;;;;129.73;54.03;;;-2.60;99.90;;;;;;4122640;28;20689;-60
2021/11/18 07:46:24;;;;;;;132.13;53.60;;;-2.60;99.90;;;;;;4130022;28;20710;-60
2021/11/18 07:48:26;;;;;;;130.38;55.47;;;-2.50;99.90;;;;;;4131009;28;20436;-65
2021/11/18 07:50:28;;;;;;;131.52;55.63;;;-2.40;99.90;;;;;;4124993;28;20026;-62
2021/11/18 07:52:29;;;;;;;146.63;56.30;;;-2.40;99.90;;;;;;4130915;28;20439;-59
2021/11/18 07:54:31;;;;;;;137.23;57.87;;;-2.30;99.90;;;;;;4127381;28;20279;-64
2021/11/18 07:56:32;;;;;;;142.03;59.27;;;-2.30;99.90;;;;;;4123813;28;20321;-62
2021/11/18 07:58:34;;;;;;;127.33;57.07;;;-2.30;99.90;;;;;;4127684;28;20287;-62
2021/11/18 08:00:35;;;;;;;137.13;60.33;;;-2.20;99.90;;;;;;4123479;28;20276;-63
2021/11/18 08:02:38;;;;;;;139.20;57.37;;;-2.10;99.90;;;;;;4129582;28;20267;-57
2021/11/18 08:04:40;;;;;;;142.80;53.80;;;-2.10;99.90;;;;;;4124415;28;20284;-58
2021/11/18 08:06:41;;;;;;;122.77;54.93;;;-2.00;99.90;;;;;;4131639;28;20389;-58
2021/11/18 08:08:47;;;;;;;126.60;58.00;;;-2.00;99.90;;;;;;4131485;28;20766;-60
2021/11/18 08:10:48;;;;;;;128.60;56.33;;;-1.90;99.90;;;;;;4133857;28;20275;-60
2021/11/18 08:12:50;;;;;;;128.20;53.73;;;-1.80;99.90;;;;;;4122874;28;21005;-62
2021/11/18 08:14:51;;;;;;;136.30;57.80;;;-1.70;99.90;;;;;;4122261;28;20775;-62
2021/11/18 08:16:53;;;;;;;126.47;54.50;;;-1.70;99.90;;;;;;4123928;28;20264;-67
2021/11/18 08:18:54;;;;;;;129.37;54.77;;;-1.60;99.90;;;;;;4125174;28;20264;-61
2021/11/18 08:20:56;;;;;;;129.50;56.20;;;-1.60;99.90;;;;;;4124873;28;20755;-60
2021/11/18 08:22:57;;;;;;;125.03;54.13;;;-1.50;99.90;;;;;;4124558;28;20354;-61
2021/11/18 08:24:59;;;;;;;125.53;55.60;;;-1.40;99.90;;;;;;4123150;28;20688;-58
2021/11/18 08:27:00;;;;;;;129.50;55.53;;;-1.40;99.90;;;;;;4123683;28;20300;-55
2021/11/18 08:29:03;;;;;;;123.83;52.30;;;-1.40;99.90;;;;;;4126050;28;20346;-60
2021/11/18 08:31:04;;;;;;;132.37;55.00;;;-1.40;99.90;;;;;;4124512;28;20248;-57
2021/11/18 08:33:06;;;;;;;136.83;59.50;;;-1.50;99.90;;;;;;4125437;28;20811;-54
2021/11/18 08:35:08;;;;;;;126.33;52.03;;;-1.50;99.90;;;;;;4123992;28;20366;-58
2021/11/18 08:37:11;;;;;;;122.93;53.90;;;-1.60;99.90;;;;;;4125021;28;20296;-60
2021/11/18 08:39:19;;;;;;;132.27;54.83;;;-1.50;99.90;;;;;;4124674;28;20280;-62
2021/11/18 08:41:21;;;;;;;119.40;56.27;;;-1.60;99.90;;;;;;4125166;28;20331;-61
2021/11/18 08:43:23;;;;;;;131.70;55.10;;;-1.50;99.90;;;;;;4116410;28;20339;-60
2021/11/18 08:45:24;;;;;;;135.90;57.03;;;-1.50;99.90;;;;;;4110002;28;20340;-60
2021/11/18 08:47:26;;;;;;;123.10;55.30;;;-1.50;99.90;;;;;;4108446;28;20733;-64
2021/11/18 08:49:28;;;;;;;122.77;55.43;;;-1.50;99.90;;;;;;4122213;28;20628;-60
2021/11/18 08:51:33;;;;;;;123.00;54.90;;;-1.50;99.90;;;;;;4121688;28;20909;-62
2021/11/18 08:53:37;;;;;;;122.03;52.97;;;-1.50;99.90;;;;;;4114747;28;20284;-61
2021/11/18 08:55:40;;;;;;;116.57;50.53;;;-1.50;99.90;;;;;;4117863;28;20729;-63
2021/11/18 08:57:41;;;;;;;111.00;48.77;;;-1.50;99.90;;;;;;4119859;28;20272;-61
2021/11/18 08:59:43;;;;;;;106.80;46.77;;;-1.50;99.90;;;;;;4120865;28;20268;-62
2021/11/18 09:01:51;;;;;;;112.40;48.47;;;-1.50;99.90;;;;;;4119719;28;20322;-61
2021/11/18 09:03:52;;;;;;;102.37;47.60;;;-1.50;99.90;;;;;;4120299;28;20354;-67
2021/11/18 09:05:53;;;;;;;110.53;50.43;;;-1.40;99.90;;;;;;4118288;28;20308;-60
2021/11/18 09:07:54;;;;;;;115.63;48.03;;;-1.40;99.90;;;;;;4120699;28;20288;-63
2021/11/18 09:09:55;;;;;;;116.00;46.63;;;-1.30;99.90;;;;;;4118443;28;20284;-62
2021/11/18 09:11:59;;;;;;;106.77;45.80;;;-1.30;99.90;;;;;;4119256;28;20617;-61
2021/11/18 09:14:01;;;;;;;107.30;48.57;;;-1.20;99.90;;;;;;4121434;28;21042;-66
2021/11/18 09:16:03;;;;;;;100.60;45.30;;;-1.20;99.90;;;;;;4124481;28;20668;-67
2021/11/18 09:18:06;;;;;;;103.83;45.13;;;-1.10;99.90;;;;;;4123106;28;20315;-62
2021/11/18 09:20:11;;;;;;;104.50;42.50;;;-1.10;99.90;;;;;;4124782;28;20338;-61
2021/11/18 09:22:13;;;;;;;92.93;41.27;;;-1.10;99.90;;;;;;4124056;28;20268;-65
2021/11/18 09:24:40;;;;;;;106.37;46.57;;;-1.10;99.90;;;;;;4123990;28;20776;-63
2021/11/18 09:26:50;;;;;;;96.00;42.73;;;-1.00;99.90;;;;;;4122782;28;20663;-68
2021/11/18 09:28:51;;;;;;;90.87;42.87;;;-1.00;99.90;;;;;;4125767;28;20272;-63
2021/11/18 09:30:59;;;;;;;105.73;44.93;;;-0.90;99.90;;;;;;4139634;28;21242;-61
2021/11/18 09:33:01;;;;;;;105.07;46.17;;;-0.90;99.90;;;;;;4141310;28;20612;-61
2021/11/18 09:35:09;;;;;;;115.03;47.67;;;-0.90;99.90;;;;;;4128814;28;20280;-62
2021/11/18 09:37:12;;;;;;;106.73;45.33;;;-0.80;99.90;;;;;;4125772;28;20268;-63
2021/11/18 09:39:14;;;;;;;105.30;45.70;;;-0.70;99.90;;;;;;4122372;28;20264;-67
2021/11/18 09:41:21;;;;;;;101.57;45.23;;;-0.70;99.90;;;;;;4124356;28;20356;-66
2021/11/18 09:43:34;;;;;;;94.23;43.03;;;-0.70;99.90;;;;;;4123298;28;20272;-64
2021/11/18 09:46:02;;;;;;;109.87;48.47;;;-0.60;99.90;;;;;;4124602;28;20279;-66
2021/11/18 09:48:17;;;;;;;105.93;47.93;;;-0.70;99.90;;;;;;4120782;28;20814;-61
2021/11/18 09:50:31;;;;;;;98.33;46.13;;;-0.60;99.90;;;;;;4124352;28;20335;-62
2021/11/18 09:52:57;;;;;;;124.70;49.93;;;-0.50;99.90;;;;;;4124007;28;20299;-62
2021/11/18 09:55:08;;;;;;;117.87;46.57;;;-0.50;99.90;;;;;;4118091;28;21177;-64
2021/11/18 09:57:34;;;;;;;96.80;44.17;;;-0.40;99.90;;;;;;4120378;28;20307;-64
2021/11/18 09:59:51;;;;;;;101.33;45.53;;;-0.40;99.90;;;;;;4110048;28;20081;-63
2021/11/18 10:02:04;;;;;;;102.17;44.30;;;-0.40;99.90;;;;;;4123270;28;20338;-64
2021/11/18 10:04:23;;;;;;;99.13;44.57;;;-0.40;99.90;;;;;;4108975;28;20285;-65
2021/11/18 10:06:35;;;;;;;75.97;37.50;;;-0.30;99.90;;;;;;4107893;28;20632;-65
2021/11/18 10:08:58;;;;;;;84.10;40.87;;;-0.30;99.90;;;;;;4108954;28;20750;-63
2021/11/18 10:11:22;;;;;;;89.60;41.13;;;-0.30;99.90;;;;;;4107127;28;20602;-64
2021/11/18 10:13:51;;;;;;;89.10;39.43;;;-0.20;99.90;;;;;;4107667;28;20364;-64
2021/11/18 10:16:16;;;;;;;92.97;41.93;;;-0.10;99.90;;;;;;4108317;28;20342;-65
2021/11/18 10:18:28;;;;;;;102.77;43.67;;;-0.10;99.90;;;;;;4106783;28;20331;-64
2021/11/18 10:20:35;;;;;;;96.20;41.57;;;0.00;99.90;;;;;;4113249;28;20417;-63
2021/11/18 10:22:45;;;;;;;96.43;44.60;;;0.10;99.90;;;;;;4122471;28;20331;-63